Tiempo atmosférico en la estación meteorológica de Colmenar Viejo, Madrid (1004 m.)



Fecha
DESCASC
Temp. máxima en grados centígrados (hora)
DESCASC
Temp. mínima en grados centígrados (hora)
DESCASC
Temp. media en grados centígrados
DESCASC
Racha de viento máxima en m/sg (hora)
DESCASC
Velocidad máxima media en intervalos de 10 minutos(hora)
DESCASC
Precipitaciones diarias en mm
DESCASC
Precipitaciones de 00:00 a 06:00 en mm
DESCASC
Precipitaciones de 06:00 a 12:00 en mm
DESCASC
Precipitaciones de 12:00 a 18:00 en mm
DESCASC
Precipitaciones de 18:00 a 24:00 en mm
DESCASC
25-04-2019 9.8 (18:40) 1.6 (07:30) 5.7 15.28 (12:40) 8.06 (12:40) 7.6 2.2 0.3 4.9 0.2
24-04-2019 7.7 (17:10) 0.7 (08:20) 4.2 13.89 (21:50) 8.33 (21:50) 5.3 0.8 3.5 0 1
23-04-2019 10.4 (00:10) 2.7 (22:20) 6.5 13.89 (17:30) 8.06 (18:20) 2.9 0.1 2.2 0.1 0.5
22-04-2019 15.9 (16:50) 6.5 (00:00) 11.2 7.78 (00:10) 4.72 (00:10) 0 0 0 0 0
21-04-2019 10.7 (12:30) 5.9 (00:00) 8.3 19.72 (09:00) 8.33 (12:50) 0.1 0.1 0 0 0
20-04-2019 17.1 (17:00) 8.2 (00:00) 12.7 18.89 (10:20) 12.5 (10:10) 2.3 0.2 2 0 0.1
19-04-2019 10.2 (20:50) 5.6 (00:00) 7.9 16.67 (20:20) 10.28 (21:10) 5.9 1.9 0.1 3.3 0.6
18-04-2019 12.1 (00:10) 6.3 (00:00) 9.2 10 (02:50) 5.56 (02:50) 14.4 8.2 3.7 1.2 1.3
17-04-2019 19.2 (18:30) 7.6 (00:00) 13.4 11.39 (18:50) 6.39 (19:10) 1.5 0 0 0 1.5
16-04-2019 18 (18:30) 5.9 (00:00) 12 6.67 (17:10) 3.06 (02:00) 0 0 0 0 0
15-04-2019 20 (17:20) 9 (00:00) 14.5 13.89 (17:30) 7.78 (16:50) 0 0 0 0 0
14-04-2019 20.8 (17:20) 9.3 (00:00) 15 6.67 (16:50) 3.33 (21:10) 0 0 0 0 0
13-04-2019 18.2 (18:20) 4.4 (00:00) 11.3 9.44 (17:00) 3.61 (19:40) 0 0 0 0 0
12-04-2019 16 (18:30) 1.4 (00:00) 8.7 8.33 (00:40) 3.33 (19:40) 0 0 0 0 0
11-04-2019 13 (18:40) 3.3 (00:00) 8.1 13.61 (22:00) 5 (14:10) 0.2 0 0 0 0.2
10-04-2019 12 (16:50) 2.5 (00:00) 7.3 9.44 (18:00) 4.72 (23:30) 2.1 2 0.1 0 0
09-04-2019 10.3 (17:50) 1.4 (00:00) 5.9 15 (20:10) 6.39 (15:40) 4.5 0 0 3.9 0.6
08-04-2019 12.9 (17:20) 3.9 (00:00) 8.4 10 (15:30) 6.11 (15:30) 4.6 1.3 1 0 2.3
07-04-2019 9.3 (16:10) 0.2 (00:00) 4.8 11.67 (03:50) 6.11 (17:40) 5.5 1 0 0 4.5
06-04-2019 7.4 (16:30) -0.6 (-00:0) 3.4 15.56 (16:50) 7.78 (15:30) 0.2 0 0 0 0.2
05-04-2019 6.8 (00:30) -0.3 (00:00) 3.3 11.67 (18:50) 5.83 (02:50) 8.4 1.3 2.9 3.9 0.3
04-04-2019 11.2 (16:50) -1.2 (-00:0) 5 10.28 (16:40) 5 (06:40) 0 0 0 0 0
03-04-2019 11.3 (16:20) 4.1 (00:00) 7.7 11.39 (18:00) 6.11 (14:30) 0 0 0 0 0
02-04-2019 13.5 (18:50) 6.1 (00:00) 9.8 8.89 (16:40) 4.17 (16:00) 4.8 0 0 4.7 0.1
01-04-2019 13.8 (17:20) 4.2 (00:00) 9 7.78 (14:10) 2.78 (00:10) 0.1 0 0.1 0 0
31-03-2019 10 (12:00) 5.9 (00:00) 8 7.22 (22:20) 5 (22:10) 0.4 0 0 0.3 0.1
30-03-2019 15.3 (17:00) 2.9 (00:00) 9.1 7.78 (14:10) 3.06 (23:30) 0 0 0 0 0
29-03-2019 14.5 (16:00) 4.5 (00:00) 9.5 10 (15:20) 4.17 (23:30) 0 0 0 0 0
28-03-2019 15.6 (17:10) 3.7 (00:00) 9.7 8.61 (11:40) 5.28 (00:20) 0 0 0 0 0
27-03-2019 16 (18:10) 2 (00:00) 9 8.89 (22:50) 4.72 (23:59) 0 0 0 0 0

Gráficas

Temp. máximas Temp. mínimas Temp. medias Precipitaciones Rachas de viento máximas Velocidades máximas media en intervalos de 10 minutos

Datos horarios

Fecha y hora oficial Temperatura (ºC) Velocidad del viento (km/h) Dirección del viento Racha (km/h) Dirección de racha Precipitación (mm) Presión (hPa) Tendencia (hPa) Humedad (%)
2019-04-25 23:00:00 4.7 15 Sudoeste 27 Sudoeste 0 902.5 3.2 76
2019-04-25 22:00:00 4.4 10 Oeste 38 Sudoeste 0 901.4 2.7 80
2019-04-25 21:00:00 4.5 12 Oeste 41 Oeste 0.1 900.3 2.4 75
2019-04-25 20:00:00 8.5 15 Oeste 39 Sudoeste 0 899.3 1.5 47
2019-04-25 19:00:00 7.9 24 Sudoeste 43 Sudoeste 0.1 898.7 1.1 59
2019-04-25 18:00:00 8.5 18 Sudoeste 35 Sudoeste 0 897.9 0.6 65
2019-04-25 17:00:00 6.7 15 Sudoeste 36 Sudoeste 0.9 897.8 0.4 79
2019-04-25 16:00:00 7.2 19 Sudoeste 38 Sudoeste 0 897.6 1 73
2019-04-25 15:00:00 7.1 12 Sudoeste 29 Sudoeste 0.8 897.3 1.2 88
2019-04-25 14:00:00 2.6 22 Oeste 44 Oeste 3.2 897.4 1.8 89
2019-04-25 13:00:00 7.9 27 Sudoeste 55 Sudoeste 0 896.6 1.1 61
2019-04-25 12:00:00 7.5 23 Sudoeste 41 Sudoeste 0 896.1 1.4 74
2019-04-25 11:00:00 6.4 24 Sudoeste 39 Sudoeste 0 895.6 1.5 81
2019-04-25 10:00:00 4.8 12 Sudoeste 23 Sudoeste 0.2 895.5 2.1 93
2019-04-25 09:00:00 3.5 10 Sudoeste 22 Sudoeste 0.1 894.7 2 99
2019-04-25 08:00:00 1.8 6 Sudoeste 17 Sudoeste 0 894.1 1.7 99
2019-04-25 07:00:00 2.2 10 Sudoeste 20 Sudoeste 0 893.4 1.8 99
2019-04-25 06:00:00 2.8 9 Sudoeste 27 Sudoeste 0 892.7 1.5 99
2019-04-25 05:00:00 3.5 16 Sudoeste 44 Sudoeste 0 892.4 0.8 99
2019-04-25 04:00:00 4.1 24 Sudoeste 41 Sudoeste 0.1 891.6 0.3 99
2019-04-25 03:00:00 5.7 24 Sudoeste 44 Sudoeste 0.7 891.2 -0.2 99
2019-04-25 02:00:00 6.4 23 Sudoeste 46 Sudoeste 0.6 891.6 -0.1 99
2019-04-25 01:00:00 6.7 21 Sudoeste 37 Sudoeste 0.8 891.3 0.1 99
2019-04-25 00:00:00 6.6 17 Sudoeste 45 Sudoeste 0.3 891.4 0.8 99
2019-04-24 23:00:00 6.5 19 Sudoeste 46 Sudoeste 0.1 891.7 1.7 99
2019-04-24 22:00:00 6.2 26 Sudoeste 50 Sudoeste 0.3 891.2 1.6 99
2019-04-24 21:00:00 6 21 Sudoeste 48 Sudoeste 0.3 890.6 0.7 99
2019-04-24 20:00:00 7.2 24 Sudoeste 44 Sudoeste 0 890 0 99
2019-04-24 19:00:00 6.9 11 Sudoeste 25 Sur 0 889.6 -0.6 99
2019-04-24 18:00:00 6.8 15 Sudoeste 32 Sudoeste 0 889.9 -0.8 99
2019-04-24 17:00:00 7.5 20 Sudoeste 33 Sudoeste 0 890 -1.1 99
2019-04-24 16:00:00 5.6 4 Oeste 12 Noroeste 0 890.2 -1.1 99
2019-04-24 15:00:00 4.8 5 Noroeste 9 Noroeste 0 890.7 -0.9 99
2019-04-24 14:00:00 3.7 2 Noroeste 8 Norte 0 891.1 0 99
2019-04-24 13:00:00 2.5 4 Noroeste 12 Oeste 0 891.3 0.9 99
2019-04-24 12:00:00 1.9 12 Sudoeste 29 Sudoeste 0 891.6 1.4 99
2019-04-24 11:00:00 1.3 19 Sudoeste 33 Sudoeste 0.1 891.1 0.9 99
2019-04-24 10:00:00 1.3 14 Sudoeste 35 Sudoeste 1.2 890.4 0.5 99
2019-04-24 09:00:00 1.2 14 Sur 28 Sur 1.6 890.2 0.4 99
2019-04-24 08:00:00 0.9 11 Sur 34 Sudoeste 0.5 890.2 0.5 99
2019-04-24 07:00:00 1 17 Sudoeste 32 Sudoeste 0.1 889.9 0.3 99
2019-04-24 06:00:00 1.2 15 Sudoeste 26 Oeste 0 889.8 0.2 99
2019-04-24 05:00:00 1 15 Sudoeste 31 Sudoeste 0 889.7 0.3 99
2019-04-24 04:00:00 1.6 12 Sudoeste 24 Sudoeste 0.2 889.6 0.3 99
2019-04-24 03:00:00 2 12 Sudoeste 23 Sudoeste 0.1 889.6 0.6 99
2019-04-24 02:00:00 1.9 13 Sudoeste 24 Sudoeste 0.5 889.4 0.9 99
2019-04-24 01:00:00 2.7 15 Sudoeste 27 Sudoeste 0 889.3 1.9 99
2019-04-24 00:00:00 3.1 14 Sudoeste 23 Sudeste 0 889 2.4 94
2019-04-23 23:00:00 3.2 12 Sudoeste 26 Oeste 0 888.5 2.6 85
2019-04-23 22:00:00 2.9 16 Oeste 29 Sudoeste 0 887.4 2 87
2019-04-23 21:00:00 3.3 17 Sudoeste 35 Sudoeste 0.5 886.6 2 93
2019-04-23 20:00:00 5.3 14 Sudoeste 30 Sudoeste 0 885.9 1.6 73
2019-04-23 19:00:00 6.3 18 Sudoeste 49 Sudoeste 0 885.4 0.9 66
2019-04-23 18:00:00 8.2 26 Sudoeste 50 Sur 0 884.6 -0.2 57
2019-04-23 17:00:00 9.4 28 Sudoeste 49 Sudoeste 0 884.3 -0.8 43
2019-04-23 16:00:00 8.8 18 Sudoeste 41 Sudoeste 0 884.5 -0.8 47
2019-04-23 15:00:00 8 18 Sudoeste 33 Sudoeste 0 884.8 0 60
2019-04-23 14:00:00 6 13 Sudoeste 34 Sudoeste 0 885.1 1.1 83
2019-04-23 13:00:00 5.4 22 Sudoeste 35 Sudoeste 0.1 885.3 1.2 89
2019-04-23 12:00:00 6 12 Sudoeste 24 Sudoeste 0 884.8 1 99
2019-04-23 11:00:00 5.8 15 Sudoeste 26 Sudoeste 0.1 884 0.3 99
2019-04-23 10:00:00 6 13 Sudoeste 30 Sudoeste 0.9 884.1 0.6 99
2019-04-23 09:00:00 6.8 12 Sudoeste 27 Sudoeste 0.9 883.8 -0.1 99
2019-04-23 08:00:00 7.1 13 Sudoeste 28 Sudoeste 0.3 883.7 -0.7 97
2019-04-23 07:00:00 7.5 9 Sudoeste 14 Sudoeste 0 883.5 -1.1 94
2019-04-23 06:00:00 8.2 4 Sur 10 Sur 0 883.9 -1.4 87
2019-04-23 05:00:00 8.6 5 Sur 15 Sudoeste 0 884.4 -1.3 81
2019-04-23 04:00:00 9 10 Oeste 22 Oeste 0 884.6 -1.3 75
2019-04-23 03:00:00 9.4 7 Sur 12 Sur 0 885.3 -1.1 71
2019-04-23 02:00:00 9.5 0 Calma 7 Sur 0.1 885.7 -1 69
2019-04-23 01:00:00 9.9 0 Calma 7 Sudeste 0 885.9 -0.9 61
2019-04-23 00:00:00 10.3 5 Sudeste 13 Sur 0 886.4 -0.2 59
2019-04-22 23:00:00 10.5 4 Sudoeste 10 Sudoeste 0 886.7 0 58
2019-04-22 22:00:00 10.8 0 Calma 7 Oeste 0 886.8 -0.2 56
2019-04-22 21:00:00 11.3 4 Oeste 21 Oeste 0 886.6 -0.2 53
2019-04-22 20:00:00 11.9 8 Sudoeste 26 Sudoeste 0 886.7 -0.4 53
2019-04-22 19:00:00 12.8 14 Sudoeste 27 Sudoeste 0 887 -0.8 52
2019-04-22 18:00:00 13.4 9 Sudoeste 27 Sur 0 886.8 -1.8 49
2019-04-22 17:00:00 15.2 10 Sur 23 Sudoeste 0 887.1 -2.1 47
2019-04-22 16:00:00 15.4 6 Sudoeste 21 Sudoeste 0 887.8 -2.7 47
2019-04-22 15:00:00 13.9 6 Sudoeste 18 Sudoeste 0 888.6 -2.2 47
2019-04-22 14:00:00 12.5 8 Sur 17 Sudoeste 0 889.2 -1.9 57
2019-04-22 13:00:00 11.7 4 Sudoeste 11 Oeste 0 890.5 -0.6 58
2019-04-22 12:00:00 10.4 3 Sudoeste 9 Sur 0 890.8 -0.2 61
2019-04-22 11:00:00 9.4 2 Sudeste 14 Sudeste 0 891.1 -0.3 64
2019-04-22 10:00:00 9.2 5 Este 15 Sudeste 0 891.1 -0.3 66
2019-04-22 09:00:00 7.7 4 Nordeste 9 Norte 0 891 -0.7 75
2019-04-22 08:00:00 6.7 4 Nordeste 11 Nordeste 0 891.4 -1.2 78
2019-04-22 07:00:00 6.7 4 Nordeste 13 Nordeste 0 891.4 -1.8 76
2019-04-22 06:00:00 6.8 4 Nordeste 12 Nordeste 0 891.7 -2.1 75
2019-04-22 05:00:00 6.9 5 Nordeste 16 Norte 0 892.6 -1.9 74
2019-04-22 04:00:00 7.1 7 Nordeste 25 Nordeste 0 893.2 -1.9 72
2019-04-22 03:00:00 7.1 8 Nordeste 21 Nordeste 0 893.8 -1.8 71
2019-04-22 02:00:00 6.9 7 Nordeste 23 Este 0 894.5 -1.5 71
2019-04-22 01:00:00 7.4 12 Nordeste 28 Este 0 895.1 -0.6 68
2019-04-22 00:00:00 7.6 17 Nordeste 29 Este 0 895.6 -0.1 67
2019-04-21 23:00:00 7.7 14 Nordeste 26 Este 0 896 0 66
2019-04-21 22:00:00 7.7 12 Nordeste 27 Este 0 895.7 -0.4 65
2019-04-21 21:00:00 7.8 7 Nordeste 23 Nordeste 0 895.7 -0.5 65
2019-04-21 20:00:00 7.9 10 Nordeste 26 Nordeste 0 896 -0.5 64
2019-04-21 19:00:00 8.3 21 Nordeste 37 Este 0 896.1 -1.1 62
2019-04-21 18:00:00 8.8 19 Nordeste 36 Nordeste 0 896.2 -1.3 61
2019-04-21 17:00:00 9.6 19 Este 32 Nordeste 0 896.5 -1.2 60
2019-04-21 16:00:00 9.1 17 Este 33 Este 0 897.2 -0.9 62
2019-04-21 15:00:00 9.6 25 Este 44 Este 0 897.5 -1 60
2019-04-21 14:00:00 9.8 29 Este 40 Este 0 897.7 -1 60
2019-04-21 13:00:00 10 28 Este 42 Este 0 898.1 -0.7 62
2019-04-21 12:00:00 9.8 20 Este 35 Este 0 898.5 -0.8 61
2019-04-21 11:00:00 8.9 22 Este 32 Este 0 898.7 -0.8 67
2019-04-21 10:00:00 7.2 21 Nordeste 41 Este 0 898.8 -0.7 70
2019-04-21 09:00:00 6.7 23 Este 71 Este 0 899.3 -0.5 70
2019-04-21 08:00:00 6.7 19 Este 30 Nordeste 0 899.5 -0.9 70
2019-04-21 07:00:00 6.5 9 Nordeste 26 Nordeste 0 899.5 -1.6 72
2019-04-21 06:00:00 6 9 Nordeste 27 Nordeste 0.1 899.8 -2.5 72
2019-04-21 05:00:00 6 7 Nordeste 19 Nordeste 0 900.4 -2.9 72
2019-04-21 04:00:00 5.9 5 Norte 21 Nordeste 0 901.1 -2.9 73
2019-04-21 03:00:00 6.4 7 Nordeste 21 Nordeste 0 902.3 -1.9 71
2019-04-21 02:00:00 7 7 Nordeste 18 Nordeste 0 903.3 -0.8 70
2019-04-21 01:00:00 7.5 12 Nordeste 24 Nordeste 0 904 0.5 69
2019-04-21 00:00:00 8.2 13 Este 28 Este 0 904.2 1.5 66
2019-04-20 23:00:00 9 13 Sudeste 21 Sudeste 0 904.1 1.9 61
2019-04-20 22:00:00 10.2 9 Este 28 Este 0.1 903.5 1.4 59
2019-04-20 21:00:00 12 23 Este 35 Este 0 902.7 0.4 42
2019-04-20 20:00:00 12.9 26 Este 39 Este 0 902.2 0.1 40
2019-04-20 19:00:00 13.7 25 Este 42 Este 0 902.1 -0.5 40
2019-04-20 18:00:00 15.4 23 Este 48 Este 0 902.3 -0.7 37
2019-04-20 17:00:00 16.9 27 Nordeste 44 Este 0 902.1 -1.4 34
2019-04-20 16:00:00 15.3 29 Nordeste 47 Este 0 902.6 -0.6 36
2019-04-20 15:00:00 14.8 26 Nordeste 49 Nordeste 0 903 -0.3 34
2019-04-20 14:00:00 14.4 23 Nordeste 49 Este 0 903.5 0.1 38
2019-04-20 13:00:00 15.2 40 Este 57 Nordeste 0 903.2 0.4 39
2019-04-20 12:00:00 11.9 21 Nordeste 55 Nordeste 0 903.3 0.1 45
2019-04-20 11:00:00 11.2 24 Nordeste 68 Este 0.2 903.4 -0.3 45
2019-04-20 10:00:00 10.9 43 Nordeste 66 Nordeste 1.7 902.8 -0.3 45
2019-04-20 09:00:00 10 37 Nordeste 59 Este 0 903.2 -0.1 53
2019-04-20 08:00:00 9.7 35 Nordeste 56 Nordeste 0 903.7 -0.3 53
2019-04-20 07:00:00 10.2 39 Este 64 Este 0.1 903.1 -0.9 49
2019-04-20 06:00:00 10.1 30 Nordeste 52 Nordeste 0 903.3 -2.1 50
2019-04-20 05:00:00 9.4 23 Nordeste 56 Este 0 904 -0.9 55
2019-04-20 04:00:00 8.8 19 Nordeste 49 Este 0 904 -1 59
2019-04-20 03:00:00 8.9 26 Nordeste 57 Este 0 905.4 0.1 58
2019-04-20 02:00:00 9.3 31 Nordeste 54 Sudeste 0.2 904.9 -0.3 57
2019-04-20 01:00:00 9.4 24 Nordeste 48 Nordeste 0 905 0.5 57
2019-04-20 00:00:00 9.6 32 Nordeste 53 Nordeste 0 905.3 1.9 58
2019-04-19 23:00:00 9.8 33 Nordeste 53 Nordeste 0 905.2 3 60
2019-04-19 22:00:00 9.9 37 Nordeste 57 Nordeste 0 904.5 2.4 65
2019-04-19 21:00:00 10 36 Nordeste 60 Nordeste 0.1 903.4 1.2 73
2019-04-19 20:00:00 9.9 28 Nordeste 53 Este 0 902.2 -0.3 75
2019-04-19 19:00:00 8.3 16 Nordeste 36 Nordeste 0.5 902.1 -0.7 98
2019-04-19 18:00:00 7.4 8 Nordeste 21 Norte 0.7 902.2 -0.9 99
2019-04-19 17:00:00 7.6 5 Nordeste 22 Este 0.6 902.5 -0.5 97
2019-04-19 16:00:00 8.1 12 Este 19 Nordeste 0.8 902.8 -0.2 96
2019-04-19 15:00:00 7.6 12 Nordeste 23 Nordeste 0.7 903.1 0.5 94
2019-04-19 14:00:00 7.6 12 Nordeste 26 Este 0.4 903 0.8 97
2019-04-19 13:00:00 7.5 19 Este 28 Este 0.1 903 1.3 98
2019-04-19 12:00:00 7.8 17 Este 25 Este 0 902.6 1.4 94
2019-04-19 11:00:00 7.3 15 Nordeste 23 Este 0 902.2 1.5 96
2019-04-19 10:00:00 6.6 15 Este 22 Este 0 901.7 1.7 99
2019-04-19 09:00:00 6 18 Este 23 Este 0 901.2 1.6 99
2019-04-19 08:00:00 5.9 12 Nordeste 20 Nordeste 0 900.7 1.1 99
2019-04-19 07:00:00 5.9 8 Nordeste 22 Nordeste 0.1 900 0.7 99
2019-04-19 06:00:00 5.8 16 Nordeste 23 Nordeste 0 899.6 0.2 99
2019-04-19 05:00:00 5.9 14 Este 23 Nordeste 0.2 899.6 0.2 99
2019-04-19 04:00:00 5.8 11 Nordeste 23 Nordeste 0.1 899.3 -0.1 99
2019-04-19 03:00:00 5.7 18 Nordeste 29 Este 1.4 899.4 0 99
2019-04-19 02:00:00 6 18 Este 23 Nordeste 0.1 899.4 -0.1 99
2019-04-19 01:00:00 6.5 10 Este 17 Este 0.1 899.4 0.4 99
2019-04-19 00:00:00 6.5 10 Este 17 Este 0.6 899.4 1.2 99
2019-04-18 23:00:00 6.4 10 Este 24 Este 0.6 899.5 1.3 99
2019-04-18 22:00:00 6.6 18 Este 25 Este 0 899 1.3 98
2019-04-18 21:00:00 7.5 12 Este 16 Este 0.1 898.2 0.2 95
2019-04-18 20:00:00 7.7 10 Este 17 Nordeste 0 898.2 -0.2 94
2019-04-18 19:00:00 7.9 4 Nordeste 13 Nordeste 0 897.7 -1 91
2019-04-18 18:00:00 8.5 5 Nordeste 12 Norte 0.2 898 -0.7 88
2019-04-18 17:00:00 8.2 7 Este 17 Nordeste 0.1 898.4 -0.5 86
2019-04-18 16:00:00 8 10 Este 23 Este 0 898.7 -- 85
2019-04-18 15:00:00 8.1 14 Este 22 Este 0 898.7 -1.3 89
2019-04-18 14:00:00 7.9 6 Nordeste 21 Este 0.1 898.9 -0.8 99
2019-04-18 13:00:00 -- 15 Este 24 Este 0.8 -- -- --
2019-04-18 12:00:00 6.5 18 Este 27 Este 1.4 900 0.3 99
2019-04-18 11:00:00 7.2 12 Este 17 Nordeste 0.1 899.7 0.5 99
2019-04-18 10:00:00 -- -- -- -- -- -- -- -- --
2019-04-18 09:00:00 6.9 5 Este 8 Sudeste 0.5 899.7 1 99
2019-04-18 08:00:00 6.5 2 Nordeste 6 Norte 0.4 899.2 0.2 99
2019-04-18 07:00:00 6.5 0 Calma 6 Este 0.9 898.9 -1 99
2019-04-18 06:00:00 6.4 2 Noroeste 14 Oeste 1.7 898.7 -1.1 99
2019-04-18 05:00:00 6.5 6 Noroeste 21 Oeste 1.7 899 -0.6 99
2019-04-18 04:00:00 6.8 12 Oeste 33 Sudoeste 2 899.9 0 99
2019-04-18 03:00:00 8.1 18 Sudoeste 36 Sudoeste 1.6 899.8 0.5 99
2019-04-18 02:00:00 10.2 15 Sudeste 22 Sudeste 0.7 899.6 0.5 99
2019-04-18 01:00:00 10.7 9 Sudeste 26 Este 0.5 899.9 0.7 91
2019-04-18 00:00:00 12 7 Sudeste 12 Sudeste 0 899.3 1.3 77
2019-04-17 23:00:00 11.7 6 Este 17 Sudoeste 0.4 899.1 1.8 81
2019-04-17 22:00:00 11.1 8 Sudoeste 31 Sudoeste 1.1 899.2 3.1 83
2019-04-17 21:00:00 13.9 16 Sudoeste 29 Sudoeste 0 898 2.3 53
2019-04-17 20:00:00 16.4 17 Sudoeste 38 Sudeste 0 897.3 0.7 43
2019-04-17 19:00:00 18.6 22 Sudeste 41 Sudeste 0 896.1 -1.4 40
2019-04-17 18:00:00 18.9 15 Sudeste 25 Sur 0 895.7 -2.8 38
2019-04-17 17:00:00 18.7 11 Sudeste 26 Este 0 896.6 -2.6 40
2019-04-17 16:00:00 18.2 15 Este 26 Este 0 897.5 -2.5 44
2019-04-17 15:00:00 17.8 15 Este 26 Este 0 898.5 -2 47
2019-04-17 14:00:00 15.8 14 Este 23 Este 0 899.2 -1.1 53
2019-04-17 13:00:00 14.6 10 Este 28 Este 0 900 -0.5 58
2019-04-17 12:00:00 13 9 Sudeste 28 Sur 0 900.5 -0.5 64
2019-04-17 11:00:00 11.1 9 Este 20 Este 0 900.3 -0.4 71
2019-04-17 10:00:00 8.7 5 Nordeste 10 Este 0 900.5 0 81
2019-04-17 09:00:00 7.9 3 Sur 8 Sudeste 0 901 0.3 81
2019-04-17 08:00:00 7.7 5 Sudeste 10 Este 0 900.7 -0.3 81
2019-04-17 07:00:00 7.9 5 Sudeste 12 Este 0 900.5 -0.6 79
2019-04-17 06:00:00 8.2 0 Calma 8 Este 0 900.7 -1 78
2019-04-17 05:00:00 8.4 3 Sudeste 13 Este 0 901 -1.2 78
2019-04-17 04:00:00 8.6 6 Este 17 Sudeste 0 901.1 -0.9 78
2019-04-17 03:00:00 9.2 13 Sudeste 28 Sudeste 0 901.7 0.4 74
2019-04-17 02:00:00 10.3 17 Sudeste 28 Sudeste 0 902.2 0.6 69
2019-04-17 01:00:00 11.1 14 Sudeste 28 Sudeste 0 902 0.2 53
2019-04-17 00:00:00 12.5 7 Este 10 Nordeste 0 901.3 -0.2 42
2019-04-16 23:00:00 13 6 Nordeste 9 Este 0 901.6 0.2 39
2019-04-16 22:00:00 13.3 6 Este 9 Este 0 901.8 0.1 39
2019-04-16 21:00:00 14.9 5 Este 14 Sur 0 901.5 -0.6 36
2019-04-16 20:00:00 16.4 8 Sudeste 20 Sur 0 901.4 -1.2 34
2019-04-16 19:00:00 17.5 10 Sur 19 Sur 0 901.7 -1.6 33
2019-04-16 18:00:00 17.5 10 Sur 24 Sudoeste 0 902.1 -1.7 32
2019-04-16 17:00:00 17.1 8 Sur 22 Sudeste 0 902.6 -1.7 37
2019-04-16 16:00:00 16.9 4 Sudoeste 22 Sur 0 903.3 -1.2 40
2019-04-16 15:00:00 16.1 5 Sudeste 20 Sur 0 903.8 -0.9 43
2019-04-16 14:00:00 14.8 8 Sudeste 21 Sudeste 0 904.3 -0.1 46
2019-04-16 13:00:00 13.8 7 Sur 17 Sur 0 904.5 0.1 49
2019-04-16 12:00:00 12.9 8 Sudeste 20 Este 0 904.7 0.4 52
2019-04-16 11:00:00 11.8 8 Sur 15 Sudeste 0 904.4 0.3 57
2019-04-16 10:00:00 10.8 6 Este 15 Este 0 904.4 0.7 62
2019-04-16 09:00:00 8.8 3 Nordeste 8 Sudeste 0 904.3 0.8 70
2019-04-16 08:00:00 6.2 3 Nordeste 7 Nordeste 0 904.1 0.5 78
2019-04-16 07:00:00 6.1 4 Nordeste 8 Nordeste 0 903.7 0.4 76
2019-04-16 06:00:00 6.6 4 Nordeste 8 Nordeste 0 903.5 0.7 72
2019-04-16 05:00:00 6.7 4 Norte 6 Norte 0 903.6 0.7 69
2019-04-16 04:00:00 7.1 4 Este 13 Este 0 903.3 0.7 67
2019-04-16 03:00:00 7.1 10 Este 14 Nordeste 0 902.8 0.9 66
2019-04-16 02:00:00 7.4 11 Este 18 Este 0 902.9 1.5 63
2019-04-16 01:00:00 8.2 6 Sur 19 Noroeste 0 902.6 1.5 58
2019-04-16 00:00:00 9.2 8 Norte 23 Norte 0 901.9 2.5 55
2019-04-15 23:00:00 9.4 3 Noroeste 16 Oeste 0 901.4 2.2 56
2019-04-15 22:00:00 9.7 7 Oeste 31 Oeste 0 901.1 3 60
2019-04-15 21:00:00 10.5 16 Oeste 29 Oeste 0 899.4 1.6 58
2019-04-15 20:00:00 13.8 15 Oeste 39 Sudoeste 0 899.2 1.8 49
2019-04-15 19:00:00 18 17 Sudoeste 41 Sudoeste 0 898.1 0.1 38
2019-04-15 18:00:00 18.4 21 Sudoeste 50 Sudoeste 0 897.8 -1 41
2019-04-15 17:00:00 19.4 25 Sudoeste 47 Sudoeste 0 897.4 -1.7 36
2019-04-15 16:00:00 18.6 18 Sudoeste 42 Sudoeste 0 898 -1.9 42
2019-04-15 15:00:00 17.4 14 Sudoeste 25 Sudoeste 0 898.8 -1.6 57
2019-04-15 14:00:00 17 10 Sur 24 Sur 0 899.1 -1.4 60
2019-04-15 13:00:00 15.4 8 Sur 16 Sur 0 899.9 -0.4 69
2019-04-15 12:00:00 13.8 4 Sudeste 17 Sur 0 900.4 -0.3 75
2019-04-15 11:00:00 13.2 5 Sur 19 Este 0 900.5 -0.2 73
2019-04-15 10:00:00 13 3 Este 8 Este 0 900.3 -0.2 75
2019-04-15 09:00:00 11.6 6 Sudeste 10 Sudeste 0 900.7 -0.1 78
2019-04-15 08:00:00 10.8 0 Calma 6 Norte 0 900.7 -0.2 76
2019-04-15 07:00:00 11 2 Nordeste 5 Este 0 900.5 -1.1 73
2019-04-15 06:00:00 11.6 3 Sudoeste 8 Nordeste 0 900.8 -1.2 73
2019-04-15 05:00:00 11.1 4 Nordeste 10 Norte 0 900.9 -1.3 72
2019-04-15 04:00:00 11 5 Norte 11 Norte 0 901.6 -0.8 71
2019-04-15 03:00:00 12.3 10 Este 17 Este 0 902 -0.8 66
2019-04-15 02:00:00 13.6 4 Nordeste 8 Nordeste 0 902.2 -0.2 60
2019-04-15 01:00:00 13.4 3 Norte 6 Nordeste 0 902.4 -0.2 60
2019-04-15 00:00:00 13.8 2 Oeste 9 Sudoeste 0 902.8 0.8 59
2019-04-14 23:00:00 14 7 Sudoeste 14 Sudoeste 0 902.4 0.6 57
2019-04-14 22:00:00 14.7 7 Sudoeste 19 Sudoeste 0 902.6 0.9 54
2019-04-14 21:00:00 16.4 12 Sudoeste 20 Sudoeste 0 902 0.3 50
2019-04-14 20:00:00 18 6 Sudoeste 20 Sudoeste 0 901.8 -0.4 45
2019-04-14 19:00:00 18.8 7 Sur 22 Sur 0 901.7 -1.2 41
2019-04-14 18:00:00 19.3 8 Sur 17 Sur 0 901.7 -1.5 41
2019-04-14 17:00:00 20.3 9 Sur 24 Sudoeste 0 902.2 -1.3 40
2019-04-14 16:00:00 19.1 7 Sur 20 Sur 0 902.9 -1 43
2019-04-14 15:00:00 18.2 6 Sur 22 Sudeste 0 903.2 -0.8 42
2019-04-14 14:00:00 17.3 8 Sur 16 Sur 0 903.5 -0.5 41
2019-04-14 13:00:00 15.9 11 Sudeste 18 Este 0 903.9 0.1 41
2019-04-14 12:00:00 15.6 10 Sudeste 15 Este 0 904 0.4 41
2019-04-14 11:00:00 13.9 6 Sudeste 10 Este 0 904 0.7 41
2019-04-14 10:00:00 13.3 3 Este 9 Este 0 903.8 0.8 42
2019-04-14 09:00:00 10.9 4 Este 6 Este 0 903.6 0.4 42
2019-04-14 08:00:00 9.5 6 Este 8 Este 0 903.3 -0.2 42
2019-04-14 07:00:00 9.6 6 Nordeste 10 Este 0 903 -0.8 37
2019-04-14 06:00:00 9.8 6 Este 8 Este 0 903.2 -0.6 35
2019-04-14 05:00:00 10 3 Noroeste 5 Noroeste 0 903.5 -0.6 41
2019-04-14 04:00:00 10.2 0 Calma 10 Norte 0 903.8 -0.4 30
2019-04-14 03:00:00 10.4 5 Noroeste 10 Noroeste 0 903.8 -0.6 30
2019-04-14 02:00:00 10.7 3 Este 10 Sudeste 0 904.1 -0.4 28
2019-04-14 01:00:00 12 7 Sudeste 9 Sudeste 0 904.2 0 26
2019-04-14 00:00:00 11.8 4 Este 7 Sudeste 0 904.4 0.6 26
2019-04-13 23:00:00 11.8 2 Noroeste 9 Sudoeste 0 904.5 1.2 26
2019-04-13 22:00:00 12.8 4 Sudoeste 12 Oeste 0 904.2 1.1 26
2019-04-13 21:00:00 14.4 6 Sudoeste 18 Sudoeste 0 903.8 0.7 25
2019-04-13 20:00:00 16.3 13 Sudoeste 24 Sudoeste 0 903.3 -0.3 21
2019-04-13 19:00:00 17.5 9 Sudoeste 27 Sudoeste 0 903.1 -1 20
2019-04-13 18:00:00 17.6 9 Sur 25 Sur 0 903.1 -1.2 21
2019-04-13 17:00:00 17.3 10 Sur 34 Sudeste 0 903.6 -1 22
2019-04-13 16:00:00 16.5 8 Sur 22 Sur 0 904.1 -1 23
2019-04-13 15:00:00 16.3 6 Sudeste 18 Sudeste 0 904.3 -1 23
2019-04-13 14:00:00 15.4 5 Sur 17 Sudoeste 0 904.6 -0.4 26
2019-04-13 13:00:00 14 9 Sur 17 Sudeste 0 905.1 0.5 30
2019-04-13 12:00:00 13.2 8 Sur 16 Sur 0 905.3 0.6 34
2019-04-13 11:00:00 11.8 4 Sur 9 Sur 0 905 0.8 36
2019-04-13 10:00:00 10 3 Oeste 7 Sudoeste 0 904.6 0.8 41
2019-04-13 09:00:00 5.8 3 Noroeste 6 Noroeste 0 904.7 1.2 42
2019-04-13 08:00:00 4.6 4 Noroeste 6 Noroeste 0 904.2 0.9 45
2019-04-13 07:00:00 4.8 3 Oeste 8 Noroeste 0 903.8 0.3 43
2019-04-13 06:00:00 4.9 6 Noroeste 9 Noroeste 0 903.5 -0.4 35
2019-04-13 05:00:00 5.8 3 Noroeste 7 Nordeste 0 903.3 -0.7 33
2019-04-13 04:00:00 6.8 4 Nordeste 7 Norte 0 903.5 -0.4 32
2019-04-13 03:00:00 7.2 2 Norte 15 Nordeste 0 903.9 -0.1 32
2019-04-13 02:00:00 7.4 6 Norte 15 Nordeste 0 904 0.3 34
2019-04-13 01:00:00 8 9 Norte 14 Norte 0 903.9 0.6 34
2019-04-13 00:00:00 7.7 6 Norte 16 Norte 0 904 1.2 35
2019-04-12 23:00:00 7.9 8 Norte 22 Norte 0 903.7 1.1 37
2019-04-12 22:00:00 8.4 9 Norte 18 Norte 0 903.3 0.6 37
2019-04-12 21:00:00 10.1 9 Norte 19 Norte 0 902.8 0.4 33
2019-04-12 20:00:00 13.3 10 Norte 22 Norte 0 902.6 0.2 29
2019-04-12 19:00:00 15.5 6 Norte 19 Norte 0 902.7 -0.3 25
2019-04-12 18:00:00 15.4 6 Nordeste 17 Este 0 902.4 -1.1 26
2019-04-12 17:00:00 15.7 6 Nordeste 23 Noroeste 0 902.4 -1.3 30
2019-04-12 16:00:00 14.6 5 Noroeste 16 Noroeste 0 903 -0.8 35
2019-04-12 15:00:00 13.9 8 Sur 16 Sur 0 903.5 -0.8 41
2019-04-12 14:00:00 12.4 6 Sudoeste 15 Sudoeste 0 903.7 -0.7 44
2019-04-12 13:00:00 11.2 4 Oeste 14 Sur 0 903.8 -0.5 46
2019-04-12 12:00:00 9.8 6 Sudeste 14 Sur 0 904.3 0.1 52
2019-04-12 11:00:00 7.9 6 Sur 14 Sur 0 904.4 0.4 60
2019-04-12 10:00:00 6.5 5 Sur 21 Sudoeste 0 904.3 0.5 62
2019-04-12 09:00:00 4.1 5 Sur 8 Sur 0 904.2 0.6 69
2019-04-12 08:00:00 2.3 4 Sudoeste 6 Sudoeste 0 904 0.3 73
2019-04-12 07:00:00 1.6 0 Calma 6 Oeste 0 903.8 0.2 72
2019-04-12 06:00:00 2.8 5 Sudoeste 10 Sur 0 903.6 -0.2 67
2019-04-12 05:00:00 3.4 6 Sur 15 Nordeste 0 903.7 -0.5 62
2019-04-12 04:00:00 4.8 7 Nordeste 22 Nordeste 0 903.6 -0.7 59
2019-04-12 03:00:00 5.4 9 Nordeste 22 Nordeste 0 903.8 -0.7 58
2019-04-12 02:00:00 5.5 8 Nordeste 23 Nordeste 0 904.2 -0.2 59
2019-04-12 01:00:00 5.5 10 Nordeste 30 Nordeste 0 904.3 0.2 59
2019-04-12 00:00:00 5.7 12 Nordeste 26 Norte 0 904.5 0.8 55
2019-04-11 23:00:00 6.1 10 Nordeste 22 Norte 0 904.4 1.2 48
2019-04-11 22:00:00 6.4 8 Nordeste 49 Este 0.2 904.1 1 45
2019-04-11 21:00:00 7.6 11 Norte 27 Norte 0 903.7 0.6 42
2019-04-11 20:00:00 10.3 12 Norte 32 Noroeste 0 903.2 0.2 37
2019-04-11 19:00:00 11.2 13 Norte 31 Nordeste 0 903.1 -0.3 35
2019-04-11 18:00:00 12.6 11 Norte 31 Norte 0 903.1 -0.3 34
2019-04-11 17:00:00 12.4 13 Norte 33 Norte 0 903 -0.6 33
2019-04-11 16:00:00 12.5 14 Norte 37 Norte 0 903.4 -0.5 33
2019-04-11 15:00:00 12.1 16 Norte 37 Norte 0 903.4 -0.7 36
2019-04-11 14:00:00 11.4 12 Norte 31 Norte 0 903.6 -0.2 37
2019-04-11 13:00:00 9.7 6 Noroeste 35 Noroeste 0 903.9 0.3 42
2019-04-11 12:00:00 9.4 9 Oeste 25 Noroeste 0 904.1 0.6 43
2019-04-11 11:00:00 8.2 15 Norte 33 Nordeste 0 903.8 0.8 47
2019-04-11 10:00:00 7.1 13 Norte 30 Norte 0 903.6 0.7 51
2019-04-11 09:00:00 6 6 Nordeste 17 Nordeste 0 903.5 0.8 55
2019-04-11 08:00:00 3.7 6 Norte 20 Nordeste 0 903 0.6 60
2019-04-11 07:00:00 3.8 8 Norte 18 Nordeste 0 902.9 0.6 58
2019-04-11 06:00:00 3.8 7 Nordeste 25 Noroeste 0 902.7 0.1 57
2019-04-11 05:00:00 4.9 12 Noroeste 25 Norte 0 902.4 -0.1 54
2019-04-11 04:00:00 3.7 6 Nordeste 20 Nordeste 0 902.3 -0.2 66
2019-04-11 03:00:00 3.4 9 Nordeste 25 Norte 0 902.6 0.2 68
2019-04-11 02:00:00 4.1 8 Nordeste 26 Norte 0 902.5 0.7 65
2019-04-11 01:00:00 4.8 11 Nordeste 26 Norte 0 902.5 1.1 65
2019-04-11 00:00:00 5.8 13 Norte 30 Norte 0 902.4 2 62
2019-04-10 23:00:00 6.2 9 Norte 23 Norte 0 901.8 1.8 54
2019-04-10 22:00:00 6.2 9 Norte 22 Noroeste 0 901.4 1.6 53
2019-04-10 21:00:00 6.4 12 Norte 22 Norte 0 900.4 0.9 53
2019-04-10 20:00:00 8 10 Norte 26 Norte 0 900 0.9 50
2019-04-10 19:00:00 9.7 12 Norte 27 Norte 0 899.8 0.5 50
2019-04-10 18:00:00 8.1 15 Norte 34 Norte 0 899.5 -0.1 53
2019-04-10 17:00:00 10.6 8 Oeste 26 Oeste 0 899.1 -0.4 45
2019-04-10 16:00:00 9.4 9 Noroeste 23 Noroeste 0 899.3 -0.5 48
2019-04-10 15:00:00 7.9 9 Noroeste 27 Noroeste 0 899.6 -0.2 56
2019-04-10 14:00:00 7.8 9 Noroeste 23 Noroeste 0 899.5 0 53
2019-04-10 13:00:00 7.7 4 Sudoeste 11 Sudoeste 0 899.8 0.7 55
2019-04-10 12:00:00 7.2 5 Noroeste 22 Este 0 899.8 0.8 61
2019-04-10 11:00:00 6.1 13 Este 22 Este 0 899.5 0.9 70
2019-04-10 10:00:00 5.1 13 Este 19 Este 0 899.1 0.6 75
2019-04-10 09:00:00 3.7 0 Calma 12 Sudeste 0 899 0.4 78
2019-04-10 08:00:00 2.6 2 Nordeste 13 Norte 0.1 898.6 -0.1 87
2019-04-10 07:00:00 2.7 3 Nordeste 8 Nordeste 0 898.5 -0.3 91
2019-04-10 06:00:00 3.1 0 Calma 10 Oeste 0.6 898.6 -0.3 91
2019-04-10 05:00:00 3.4 3 Oeste 28 Oeste 0.4 898.7 -0.4 88
2019-04-10 04:00:00 3.8 6 Oeste 20 Noroeste 0.1 898.8 -0.4 83
2019-04-10 03:00:00 4.2 8 Oeste 28 Sudoeste 0.8 898.9 -0.4 82
2019-04-10 02:00:00 4.7 8 Oeste 18 Sudoeste 0.1 899.1 -0.1 80
2019-04-10 01:00:00 4.9 4 Sur 14 Sudeste 0 899.2 0.4 76
2019-04-10 00:00:00 4.7 4 Oeste 17 Oeste 0.1 899.3 1.1 81
2019-04-09 23:00:00 5.2 0 Calma 13 Sur 0.1 899.2 1.7 76
2019-04-09 22:00:00 4.7 7 Sudoeste 19 Sudoeste 0 898.8 1.6 76
2019-04-09 21:00:00 5.1 6 Sur 54 Oeste 0.4 898.2 1.2 77
2019-04-09 20:00:00 6.8 20 Oeste 46 Oeste 0 897.5 0.1 52
2019-04-09 19:00:00 8.4 8 Oeste 31 Noroeste 0 897.2 -0.3 44
2019-04-09 18:00:00 9.9 12 Oeste 29 Oeste 0 897 -0.4 44
2019-04-09 17:00:00 5.9 3 Sudoeste 31 Noroeste 0 897.4 -0.8 66
2019-04-09 16:00:00 5.6 23 Oeste 45 Oeste 0 897.5 -0.6 68
2019-04-09 15:00:00 4.1 12 Oeste 35 Oeste 1.6 897.4 -1.2 93
2019-04-09 14:00:00 3.3 18 Oeste 36 Sudoeste 2.2 898.2 -0.5 90
2019-04-09 13:00:00 6.4 15 Sudoeste 27 Sudoeste 0.1 898.1 -0.7 81
2019-04-09 12:00:00 6.3 9 Sudoeste 21 Sudoeste 0 898.6 -0.3 84
2019-04-09 11:00:00 5 8 Sudoeste 19 Sur 0 898.7 0 94
2019-04-09 10:00:00 4.4 5 Sur 15 Sudeste 0 898.8 0.3 94
2019-04-09 09:00:00 3.1 4 Sudoeste 9 Sur 0 898.9 0.3 94
2019-04-09 08:00:00 1.7 5 Sudoeste 13 Sudoeste 0 898.7 0 94
2019-04-09 07:00:00 2.2 5 Sudoeste 9 Oeste 0 898.5 -0.2 89
2019-04-09 06:00:00 2.3 4 Oeste 8 Oeste 0 898.6 -0.3 92
2019-04-09 05:00:00 2.2 4 Noroeste 6 Noroeste 0 898.7 -0.1 91
2019-04-09 04:00:00 2.8 4 Sur 8 Sur 0 898.7 -0.3 87
2019-04-09 03:00:00 3.1 0 Calma 10 Oeste 0 898.9 0 85
2019-04-09 02:00:00 3.7 3 Oeste 12 Sudeste 0 898.8 -0.2 81
2019-04-09 01:00:00 4.1 3 Este 9 Noroeste 0 899 0.5 86
2019-04-09 00:00:00 4.3 3 Norte 14 Sudoeste 0 898.9 1.3 88
2019-04-08 23:00:00 4.5 6 Sudoeste 34 Oeste 0.9 899 1.6 88
2019-04-08 22:00:00 5.5 8 Oeste 36 Oeste 0.3 898.5 1.3 83
2019-04-08 21:00:00 6.6 4 Noroeste 13 Noroeste 0 897.6 0.5 79
2019-04-08 20:00:00 6.8 7 Noroeste 29 Oeste 1 897.4 -0.1 79
2019-04-08 19:00:00 9.1 12 Sudoeste 23 Sudoeste 0.1 897.2 -0.8 59
2019-04-08 18:00:00 11.3 13 Sudoeste 27 Sudoeste 0 897.1 -1.3 47
2019-04-08 17:00:00 12.4 13 Sudoeste 27 Sudoeste 0 897.5 -1.2 50
2019-04-08 16:00:00 11.4 12 Sudoeste 36 Sudoeste 0 898 -0.5 60
2019-04-08 15:00:00 11 12 Sur 28 Sudoeste 0 898.4 -0.3 65
2019-04-08 14:00:00 10.1 10 Sudoeste 24 Sudoeste 0 898.7 0.2 75
2019-04-08 13:00:00 10 13 Sudoeste 24 Sudoeste 0 898.5 -0.2 71
2019-04-08 12:00:00 9.3 10 Sudoeste 22 Oeste 0 898.7 0.1 95
2019-04-08 11:00:00 7.2 8 Sudoeste 19 Sudoeste 0 898.5 0.3 99
2019-04-08 10:00:00 6.1 5 Sur 12 Sudoeste 0 898.7 0.6 99
2019-04-08 09:00:00 5.2 0 Calma 9 Sudoeste 0.1 898.6 0.6 99
2019-04-08 08:00:00 5 2 Sur 8 Sudoeste 0.2 898.2 0.2 99
2019-04-08 07:00:00 5 4 Sur 6 Sur 0.7 898.1 -0.2 99
2019-04-08 06:00:00 4.7 2 Sudoeste 9 Oeste 0.2 898 -0.7 99
2019-04-08 05:00:00 4.5 4 Sudoeste 7 Sudoeste 0 898 -1 99
2019-04-08 04:00:00 4.5 0 Calma 6 Oeste 0.3 898.3 -0.9 99
2019-04-08 03:00:00 4.5 0 Calma 5 Noroeste 0.3 898.7 -0.7 99
2019-04-08 02:00:00 4.3 0 Calma 3 Noroeste 0.2 899 -0.6 99
2019-04-08 01:00:00 4.2 0 Calma 4 Sudoeste 0.3 899.2 -0.2 99
2019-04-08 00:00:00 3.9 0 Calma 4 Noroeste 0.4 899.4 0.1 99
2019-04-07 23:00:00 3.7 0 Calma 8 Noroeste 1.1 899.6 0.5 99
2019-04-07 22:00:00 3.7 3 Noroeste 8 Noroeste 0.8 899.4 0.8 98
2019-04-07 21:00:00 4.1 3 Oeste 9 Oeste 0.8 899.3 1.2 95
2019-04-07 20:00:00 4.4 4 Noroeste 12 Noroeste 0.8 899.1 1.4 91
2019-04-07 19:00:00 5 4 Noroeste 26 Oeste 0.6 898.6 1.2 81
2019-04-07 18:00:00 5.4 15 Sudoeste 36 Sudoeste 0 898.1 0.6 65
2019-04-07 17:00:00 8.9 8 Oeste 23 Sudoeste 0 897.7 0.4 38
2019-04-07 16:00:00 9.2 6 Oeste 27 Oeste 0 897.4 0.4 39
2019-04-07 15:00:00 8.6 12 Oeste 29 Oeste 0 897.5 1 38
2019-04-07 14:00:00 8.4 12 Oeste 27 Oeste 0 897.3 1.6 39
2019-04-07 13:00:00 8.1 8 Oeste 22 Oeste 0 897 2 45
2019-04-07 12:00:00 6.2 6 Oeste 23 Sudoeste 0 896.5 2 50
2019-04-07 11:00:00 5.5 10 Sudeste 19 Sudeste 0 895.7 1.9 58
2019-04-07 10:00:00 4.3 11 Sudeste 18 Sudeste 0 895 2.3 66
2019-04-07 09:00:00 1.5 7 Este 15 Sudeste 0 894.5 2.3 85
2019-04-07 08:00:00 1.2 5 Este 10 Nordeste 0 893.8 1.8 86
2019-04-07 07:00:00 1.5 5 Sudeste 23 Sudoeste 0 892.7 0.7 79
2019-04-07 06:00:00 1.3 5 Noroeste 38 Oeste 0 892.2 0.7 88
2019-04-07 05:00:00 0.8 7 Sudoeste 25 Oeste 0.5 892 0.4 97
2019-04-07 04:00:00 0.2 15 Oeste 42 Oeste 0.5 892 0.4 90
2019-04-07 03:00:00 2 14 Sudoeste 31 Sudoeste 0 891.5 0.4 72
2019-04-07 02:00:00 2.6 16 Sudoeste 35 Sudoeste 0 891.6 0.6 69
2019-04-07 01:00:00 2.7 13 Sudoeste 29 Oeste 0 891.6 1.4 71
2019-04-07 00:00:00 3 18 Oeste 35 Oeste 0 891.1 1.3 68
2019-04-06 23:00:00 2.8 8 Sudoeste 30 Oeste 0 891 2.2 66
2019-04-06 22:00:00 3.4 15 Sudoeste 36 Oeste 0 890.2 1.9 65
2019-04-06 21:00:00 3.3 13 Sudoeste 42 Oeste 0 889.8 2.1 66
2019-04-06 20:00:00 4.8 13 Oeste 41 Oeste 0 888.8 1.5 53
2019-04-06 19:00:00 4.7 20 Sudoeste 55 Oeste 0.2 888.3 0.9 71
2019-04-06 18:00:00 4.6 27 Oeste 55 Oeste 0 887.7 -0.3 61
2019-04-06 17:00:00 5.2 23 Oeste 56 Oeste 0 887.3 -0.7 56
2019-04-06 16:00:00 6.4 25 Sudoeste 50 Sudoeste 0 887.4 -1 64
2019-04-06 15:00:00 5.4 12 Oeste 40 Sudoeste 0 888 -0.9 67
2019-04-06 14:00:00 5.8 19 Oeste 41 Oeste 0 888 -1.1 51
2019-04-06 13:00:00 4.2 13 Sudoeste 31 Sudoeste 0 888.4 -0.5 79
2019-04-06 12:00:00 3.5 16 Sudoeste 28 Sudoeste 0 888.9 0.1 84
2019-04-06 11:00:00 1.8 14 Sudoeste 30 Sudoeste 0 889.1 0.7 95
2019-04-06 10:00:00 0.3 14 Sudoeste 28 Sudoeste 0 888.9 0.8 99
2019-04-06 09:00:00 -0.2 9 Sudoeste 20 Sudoeste 0 888.8 1.4 99
2019-04-06 08:00:00 -0.5 8 Sudoeste 18 Sudoeste 0 888.4 0.9 93
2019-04-06 07:00:00 0.7 11 Sudoeste 28 Sudoeste 0 888.1 0.8 73
2019-04-06 06:00:00 0.2 9 Sudoeste 24 Sudoeste 0 887.4 -0.2 78
2019-04-06 05:00:00 0.8 12 Oeste 31 Oeste 0 887.5 -0.2 79
2019-04-06 04:00:00 1 16 Oeste 33 Oeste 0 887.3 -0.5 78
2019-04-06 03:00:00 0.7 14 Sudoeste 27 Sudoeste 0 887.6 -0.2 84
2019-04-06 02:00:00 1.3 14 Sudoeste 26 Sudoeste 0 887.7 0.2 83
2019-04-06 01:00:00 1.2 10 Sudoeste 19 Sudoeste 0 887.8 0.8 83
2019-04-06 00:00:00 1.7 9 Sudoeste 20 Oeste 0 887.8 1.8 82
2019-04-05 23:00:00 2.2 9 Oeste 19 Oeste 0 887.5 2.4 77
2019-04-05 22:00:00 1.3 11 Sudoeste 28 Sudoeste 0 887 2.1 81
2019-04-05 21:00:00 1.7 11 Oeste 22 Oeste 0 886 1.3 79
2019-04-05 20:00:00 1.8 10 Oeste 24 Sudoeste 0 885.1 0.6 87
2019-04-05 19:00:00 1.3 12 Oeste 42 Oeste 0.3 884.9 0.2 93
2019-04-05 18:00:00 1.1 17 Oeste 36 Sudoeste 0.5 884.7 -0.8 98
2019-04-05 17:00:00 3.9 8 Sur 22 Sudoeste 0 884.5 -0.8 94
2019-04-05 16:00:00 3.3 6 Sudoeste 17 Oeste 1.4 884.7 -0.8 99
2019-04-05 15:00:00 -0.2 9 Oeste 30 Oeste 1.6 885.5 -0.3 99
2019-04-05 14:00:00 3.1 14 Sur 34 Sur 0.3 885.3 -0.7 99
2019-04-05 13:00:00 3.1 13 Sur 23 Sur 0.1 885.5 -0.1 99
2019-04-05 12:00:00 2.4 9 Sur 23 Sur 0.2 885.8 0.2 99
2019-04-05 11:00:00 2.1 12 Sudoeste 28 Sudoeste 0.6 886 0.1 99
2019-04-05 10:00:00 2.1 9 Sur 22 Sur 1.2 885.6 -0.2 99
2019-04-05 09:00:00 2 7 Sudoeste 21 Sudoeste 0.6 885.6 -0.2 99
2019-04-05 08:00:00 1.8 13 Sudoeste 27 Sudoeste 0.1 885.9 -0.2 99
2019-04-05 07:00:00 1.7 17 Sudoeste 31 Sudoeste 0.2 885.8 -0.6 99
2019-04-05 06:00:00 1.6 15 Sudoeste 27 Sudoeste 0.6 885.8 -1 99
2019-04-05 05:00:00 2 13 Sudoeste 26 Sudoeste 0.5 886.1 -0.9 99
2019-04-05 04:00:00 2.2 11 Sudoeste 29 Sudoeste 0.1 886.4 -0.2 97
2019-04-05 03:00:00 2.5 18 Sudoeste 36 Sudoeste 0.1 886.8 0.2 85
2019-04-05 02:00:00 3.9 14 Oeste 38 Oeste 0 887 -0.1 61
2019-04-05 01:00:00 6.1 19 Sudoeste 40 Oeste 0 886.6 -0.6 41
2019-04-05 00:00:00 6.5 11 Sudoeste 21 Sudoeste 0 886.6 -0.8 38
2019-04-04 23:00:00 6.8 4 Sudoeste 15 Sudoeste 0 887.1 -0.4 33
2019-04-04 22:00:00 7.1 8 Sudoeste 24 Sudeste 0 887.2 -0.5 31
2019-04-04 21:00:00 7.6 8 Sudoeste 19 Sudoeste 0 887.4 -0.7 31
2019-04-04 20:00:00 8.3 10 Sudoeste 24 Oeste 0 887.5 -0.9 30
2019-04-04 19:00:00 8.7 17 Sudoeste 33 Sudoeste 0 887.7 -1.2 29
2019-04-04 18:00:00 9.1 15 Sudoeste 31 Sudoeste 0 888.1 -1.6 29
2019-04-04 17:00:00 9.7 15 Sudoeste 37 Sudoeste 0 888.4 -2 28
2019-04-04 16:00:00 10 13 Sur 30 Sudoeste 0 888.9 -2 30
2019-04-04 15:00:00 9.8 12 Sur 32 Oeste 0 889.7 -1.4 32
2019-04-04 14:00:00 8.2 12 Sudeste 29 Este 0 890.4 -0.9 33
2019-04-04 13:00:00 7.4 9 Sudeste 21 Sur 0 890.9 -0.2 37
2019-04-04 12:00:00 6 11 Sudeste 28 Sur 0 891.1 0 41
2019-04-04 11:00:00 5.1 5 Sur 14 Sur 0 891.3 0.7 44
2019-04-04 10:00:00 2.1 6 Noroeste 14 Oeste 0 891.1 0.6 51
2019-04-04 09:00:00 -0.1 8 Noroeste 14 Noroeste 0 891.1 0.5 60
2019-04-04 08:00:00 -1 9 Noroeste 23 Norte 0 890.6 0 58
2019-04-04 07:00:00 -0.2 15 Norte 36 Norte 0 890.5 -0.1 54
2019-04-04 06:00:00 -0.3 12 Norte 28 Norte 0 890.6 -0.4 53
2019-04-04 05:00:00 0.1 3 Oeste 19 Oeste 0 890.6 -0.7 51
2019-04-04 04:00:00 0.2 2 Sudoeste 12 Norte 0 890.6 -0.9 49
2019-04-04 03:00:00 1.2 4 Norte 24 Norte 0 891 -0.4 47
2019-04-04 02:00:00 2.1 12 Norte 33 Norte 0 891.3 -0.1 44
2019-04-04 01:00:00 3 16 Norte 34 Noroeste 0 891.5 0.3 41
2019-04-04 00:00:00 4.1 14 Norte 37 Norte 0 891.4 0.7 38
2019-04-03 23:00:00 4.9 8 Norte 32 Norte 0 891.4 0.8 39
2019-04-03 22:00:00 5.4 10 Norte 28 Noroeste 0 891.2 0.5 41
2019-04-03 21:00:00 6 5 Noroeste 25 Noroeste 0 890.7 0.2 35
2019-04-03 20:00:00 8.2 11 Oeste 30 Oeste 0 890.6 -0.2 31
2019-04-03 19:00:00 8.7 13 Oeste 39 Noroeste 0 890.7 -0.7 31
2019-04-03 18:00:00 9.8 18 Oeste 41 Sudoeste 0 890.5 -1.1 33
2019-04-03 17:00:00 11 9 Noroeste 34 Oeste 0 890.8 -1.1 34
2019-04-03 16:00:00 10.3 11 Oeste 40 Oeste 0 891.4 -0.8 38
2019-04-03 15:00:00 9.8 17 Oeste 40 Oeste 0 891.6 -1.1 41
2019-04-03 14:00:00 10.5 15 Oeste 36 Sudoeste 0 891.9 -1.3 45
2019-04-03 13:00:00 10.3 16 Oeste 39 Oeste 0 892.2 -1.4 46
2019-04-03 12:00:00 9.7 19 Oeste 39 Sudoeste 0 892.7 -1.2 48
2019-04-03 11:00:00 9.2 17 Oeste 34 Oeste 0 893.2 -0.9 49
2019-04-03 10:00:00 6.8 14 Oeste 26 Oeste 0 893.6 -1 57
2019-04-03 09:00:00 5.6 8 Oeste 17 Oeste 0 893.9 -1.3 60
2019-04-03 08:00:00 5.3 10 Oeste 19 Oeste 0 894.1 -1.8 59
2019-04-03 07:00:00 5.5 4 Oeste 13 Oeste 0 894.6 -1.9 57
2019-04-03 06:00:00 6.2 0 Calma 11 Oeste 0 895.2 -2.1 54
2019-04-03 05:00:00 6.9 4 Noroeste 13 Sudoeste 0 895.9 -1.9 52
2019-04-03 04:00:00 7.2 4 Sudoeste 11 Oeste 0 896.5 -1.7 51
2019-04-03 03:00:00 7.6 4 Oeste 22 Oeste 0 897.3 -1.5 49
2019-04-03 02:00:00 8.3 11 Oeste 24 Oeste 0 897.8 -1.4 49
2019-04-03 01:00:00 7.2 6 Noroeste 14 Oeste 0 898.2 -0.9 52
2019-04-03 00:00:00 8.1 6 Oeste 12 Sudoeste 0 898.8 0 57
2019-04-02 23:00:00 8.4 5 Oeste 9 Sur 0 899.2 0.4 66
2019-04-02 22:00:00 9.1 4 Oeste 13 Sudoeste 0 899.1 0.3 63
2019-04-02 21:00:00 10 8 Sudoeste 21 Sudoeste 0 898.8 -0.4 62
2019-04-02 20:00:00 11.5 8 Sudoeste 22 Sudoeste 0 898.8 -1.2 55
2019-04-02 19:00:00 13 8 Oeste 20 Oeste 0.1 898.8 -1.4 51
2019-04-02 18:00:00 11.8 6 Oeste 27 Oeste 0 899.2 -1.3 59
2019-04-02 17:00:00 10.5 13 Oeste 32 Oeste 0 900 -1.6 60
2019-04-02 16:00:00 11.5 15 Sudoeste 28 Sudoeste 0 900.2 -1.3 62
2019-04-02 15:00:00 12.1 13 Sudeste 21 Sudeste 0.8 900.5 -1.2 60
2019-04-02 14:00:00 7.9 12 Noroeste 24 Noroeste 3.9 901.6 -0.1 76
2019-04-02 13:00:00 11.9 8 Sur 14 Sudeste 0 901.5 0.2 60
2019-04-02 12:00:00 12 3 Sur 16 Sur 0 901.7 0.7 64
2019-04-02 11:00:00 10.9 4 Sudoeste 11 Sudeste 0 901.7 0.9 70
2019-04-02 10:00:00 9.5 4 Sudeste 9 Sudeste 0 901.3 0.8 78
2019-04-02 09:00:00 6.7 4 Este 7 Noroeste 0 901 0.4 90
2019-04-02 08:00:00 6.3 4 Nordeste 11 Norte 0 900.8 0 90
2019-04-02 07:00:00 6.4 5 Nordeste 8 Este 0 900.5 -0.7 85
2019-04-02 06:00:00 7.2 4 Este 8 Nordeste 0 900.6 -0.5 74
2019-04-02 05:00:00 7.8 5 Nordeste 8 Nordeste 0 900.8 -0.6 71
2019-04-02 04:00:00 7.9 4 Este 7 Este 0 901.2 -0.3 63
2019-04-02 03:00:00 8.1 3 Sudoeste 6 Oeste 0 901.1 -0.1 60
2019-04-02 02:00:00 8.8 0 Calma 4 Sur 0 901.4 0.4 58
2019-04-02 01:00:00 9.1 0 Calma 9 Sudoeste 0 901.5 0.8 57
2019-04-02 00:00:00 9.7 5 Norte 11 Norte 0 901.2 1.3 53
2019-04-01 23:00:00 9.9 4 Norte 15 Noroeste 0 901 1.6 54
2019-04-01 22:00:00 10.3 6 Norte 15 Norte 0 900.7 1.5 54
2019-04-01 21:00:00 10.8 2 Sudoeste 9 Sur 0 899.9 0.8 55
2019-04-01 20:00:00 11.4 5 Sur 19 Este 0 899.4 0.2 53
2019-04-01 19:00:00 12 6 Sur 13 Sur 0 899.2 -0.3 49
2019-04-01 18:00:00 12.4 4 Sur 13 Sudeste 0 899.1 -0.9 47
2019-04-01 17:00:00 12.7 4 Sur 13 Sudoeste 0 899.2 -1.2 47
2019-04-01 16:00:00 13.3 5 Norte 13 Sudoeste 0 899.5 -1 50
2019-04-01 15:00:00 11 6 Sudoeste 28 Este 0 900 -0.6 57
2019-04-01 14:00:00 11.5 4 Sudoeste 22 Sudeste 0 900.4 0.2 55
2019-04-01 13:00:00 11.6 8 Sudeste 19 Sudeste 0 900.5 0.7 59
2019-04-01 12:00:00 9.6 9 Sudeste 24 Este 0.1 900.6 1.2 77
2019-04-01 11:00:00 7.3 2 Norte 9 Sudeste 0 900.2 1 92
2019-04-01 10:00:00 6.3 2 Sur 12 Sudeste 0 899.8 0.9 99
2019-04-01 09:00:00 5.1 4 Este 9 Este 0 899.4 0.4 99
2019-04-01 08:00:00 4.5 5 Nordeste 9 Nordeste 0 899.2 0.2 99
2019-04-01 07:00:00 5.2 3 Nordeste 9 Norte 0 898.9 -0.1 99
2019-04-01 06:00:00 5.6 0 Calma 8 Este 0 899 -0.4 99
2019-04-01 05:00:00 5.6 5 Este 8 Nordeste 0 899 -0.5 99
2019-04-01 04:00:00 5.4 4 Nordeste 12 Nordeste 0 899 -0.6 99
2019-04-01 03:00:00 5.5 5 Nordeste 16 Nordeste 0 899.4 -0.3 99
2019-04-01 02:00:00 5.6 4 Nordeste 15 Norte 0 899.5 -0.1 99
2019-04-01 01:00:00 5.7 5 Nordeste 19 Nordeste 0 899.6 0.5 97
2019-04-01 00:00:00 6 12 Nordeste 21 Nordeste 0 899.7 0.9 94
2019-03-31 23:00:00 6.1 13 Nordeste 26 Nordeste 0 899.6 1 97
2019-03-31 22:00:00 6.3 17 Este 24 Este 0 899.1 0.4 97
2019-03-31 21:00:00 7.2 7 Nordeste 15 Este 0 898.8 0.2 93
2019-03-31 20:00:00 7.5 8 Este 13 Este 0.1 898.6 -0.2 96
2019-03-31 19:00:00 7.5 10 Este 18 Este 0 898.7 -0.5 96
2019-03-31 18:00:00 8.2 13 Este 21 Este 0.2 898.6 -1.2 89
2019-03-31 17:00:00 8.9 12 Este 20 Este 0 898.8 -1.6 76
2019-03-31 16:00:00 9.3 9 Este 16 Sudeste 0 899.2 -1.5 70
2019-03-31 15:00:00 8 8 Sudeste 15 Sudeste 0.1 899.8 -1 74
2019-03-31 14:00:00 8.5 11 Sudeste 20 Sudeste 0 900.4 -0.3 61
2019-03-31 13:00:00 9.3 11 Sudeste 19 Sudeste 0 900.7 0.2 53
2019-03-31 12:00:00 9.9 10 Este 17 Este 0 900.8 0.4 55
2019-03-31 11:00:00 9 10 Este 18 Este 0 900.7 1.3 56
2019-03-31 10:00:00 8.6 13 Este 17 Este 0 900.5 0.5 58
2019-03-31 09:00:00 6.4 5 Nordeste 12 Nordeste 0 900.4 0 62
2019-03-31 08:00:00 6.5 9 Nordeste 15 Este 0 899.4 -1.5 63
2019-03-31 07:00:00 6.6 15 Este 19 Este 0 900 -1.6 62
2019-03-31 06:00:00 7 8 Este 15 Norte 0 900.4 -1.6 59
2019-03-31 05:00:00 7.3 5 Nordeste 12 Nordeste 0 900.9 -1.7 57
2019-03-31 03:00:00 7.4 4 Nordeste 13 Nordeste 0 902 -0.7 62
2019-03-31 01:00:00 7.7 7 Nordeste 13 Este 0 902.6 0 56
2019-03-31 00:00:00 8.3 10 Este 16 Este 0 902.6 -0.1 47
2019-03-30 23:00:00 8.9 6 Este 21 Este 0 902.7 0.4 37
2019-03-30 22:00:00 10.2 4 Norte 8 Norte 0 902.6 0.3 35
2019-03-30 21:00:00 11 3 Norte 7 Noroeste 0 902.7 0.9 33
2019-03-30 20:00:00 12.4 4 Sudeste 9 Sudeste 0 902.3 0.4 32
2019-03-30 19:00:00 12.6 7 Sudeste 13 Sudeste 0 902.3 -0.3 32
2019-03-30 18:00:00 14.5 8 Sudeste 18 Este 0 901.8 -1.6 31
2019-03-30 17:00:00 15.1 5 Sudoeste 18 Sur 0 901.9 -2.4 33
2019-03-30 16:00:00 14.6 7 Sur 20 Sudeste 0 902.6 -2.4 34
2019-03-30 15:00:00 14.2 5 Sur 28 Sur 0 903.4 -2.4 36
2019-03-30 14:00:00 13.5 6 Sur 19 Este 0 904.3 -1.9 39
2019-03-30 13:00:00 12.7 8 Sur 17 Sudeste 0 905 -1.2 41
2019-03-30 12:00:00 11.9 5 Este 18 Nordeste 0 905.8 -0.7 43
2019-03-30 11:00:00 10.5 8 Sur 21 Este 0 906.2 -0.4 45
2019-03-30 10:00:00 9.4 4 Sudeste 12 Sudeste 0 906.2 -0.3 45
2019-03-30 09:00:00 7.6 4 Este 6 Este 0 906.5 -0.2 49
2019-03-30 08:00:00 4.4 3 Noroeste 6 Noroeste 0 906.6 -0.2 62
2019-03-30 07:00:00 3.1 3 Noroeste 7 Noroeste 0 906.5 -0.5 64
2019-03-30 06:00:00 3.2 4 Noroeste 8 Norte 0 906.7 -0.8 62
2019-03-30 05:00:00 3.2 4 Noroeste 6 Noroeste 0 906.8 -1 61
2019-03-30 04:00:00 3.4 4 Noroeste 7 Nordeste 0 907 -1.1 57
2019-03-30 03:00:00 4.4 6 Nordeste 12 Nordeste 0 907.5 -0.4 55
2019-03-30 02:00:00 5.1 5 Sudeste 14 Sudeste 0 907.8 0 53
2019-03-30 01:00:00 5.6 9 Sudeste 18 Sur 0 908.1 0.7 53
2019-03-30 00:00:00 7.1 11 Sur 25 Sudeste 0 907.9 0.6 48
2019-03-29 23:00:00 8.1 11 Sudeste 19 Sur 0 907.8 0.9 42
2019-03-29 22:00:00 9.3 7 Sudeste 11 Sur 0 907.4 0.9 39
2019-03-29 21:00:00 9.4 6 Sudeste 14 Sur 0 907.3 0.8 39
2019-03-29 20:00:00 10.2 9 Sudeste 16 Sudeste 0 906.9 0.4 36
2019-03-29 19:00:00 12.2 9 Sudeste 20 Sudeste 0 906.5 -0.5 31
2019-03-29 18:00:00 13.8 8 Sur 22 Sudeste 0 906.5 -1.3 30
2019-03-29 17:00:00 14.3 10 Sudeste 22 Sudeste 0 906.5 -2 30
2019-03-29 16:00:00 14.1 10 Sudeste 36 Sudeste 0 907 -2 30
2019-03-29 15:00:00 13.7 3 Norte 20 Este 0 907.8 -2 32
2019-03-29 14:00:00 12.9 8 Sudeste 26 Sur 0 908.5 -1.6 32
2019-03-29 13:00:00 12.3 6 Sudeste 24 Sudeste 0 909 -1.2 33
2019-03-29 12:00:00 11.6 6 Este 26 Sudeste 0 909.8 -0.5 33
2019-03-29 11:00:00 10.5 8 Sudeste 24 Este 0 910.1 0 34
2019-03-29 10:00:00 9.6 6 Sudeste 16 Este 0 910.2 0.4 34
2019-03-29 09:00:00 8.8 4 Este 8 Este 0 910.3 0.5 35
2019-03-29 08:00:00 6 5 Este 8 Este 0 910.1 0.4 41
2019-03-29 07:00:00 4.8 6 Este 7 Este 0 909.8 -0.1 41
2019-03-29 06:00:00 4.9 4 Nordeste 5 Nordeste 0 909.8 -0.3 39
2019-03-29 05:00:00 5.3 2 Nordeste 6 Nordeste 0 909.7 -0.4 38
2019-03-29 04:00:00 5.9 5 Este 8 Este 0 909.9 0 37
2019-03-29 03:00:00 5.9 4 Nordeste 9 Nordeste 0 910.1 0.6 37
2019-03-29 02:00:00 6 6 Este 18 Este 0 910.1 1 37
2019-03-29 01:00:00 7.5 11 Este 18 Este 0 909.9 0.7 32
2019-03-29 00:00:00 9.4 7 Sudeste 13 Sur 0 909.5 0.4 31
2019-03-28 23:00:00 9 4 Noroeste 6 Noroeste 0 909.1 0.2 31
2019-03-28 22:00:00 9.3 5 Noroeste 7 Noroeste 0 909.2 0.5 30
2019-03-28 21:00:00 9.8 4 Noroeste 5 Noroeste 0 909.1 0.4 28
2019-03-28 20:00:00 12.2 4 Sudeste 9 Sudeste 0 908.9 0.2 26
2019-03-28 19:00:00 13.5 5 Sudeste 13 Sur 0 908.7 -0.5 26
2019-03-28 18:00:00 14.7 6 Sudeste 17 Sudeste 0 908.7 -1.1 25
2019-03-28 17:00:00 15.3 4 Sudeste 14 Sudeste 0 908.7 -1.8 25
2019-03-28 16:00:00 15.3 5 Sudeste 13 Sudeste 0 909.2 -1.8 27
2019-03-28 15:00:00 14.6 7 Sudeste 16 Sur 0 909.8 -1.6 27
2019-03-28 14:00:00 14 6 Sudeste 18 Sur 0 910.5 -1.1 28
2019-03-28 13:00:00 12.8 9 Sudeste 19 Sur 0 911 -0.6 28
2019-03-28 12:00:00 12.1 6 Sur 31 Este 0 911.4 -0.3 29
2019-03-28 11:00:00 11 6 Sur 26 Sudeste 0 911.6 -0.2 31
2019-03-28 10:00:00 9.8 3 Sur 8 Sudoeste 0 911.6 0.3 36
2019-03-28 09:00:00 7.4 0 Calma 5 Noroeste 0 911.7 0.7 39
2019-03-28 08:00:00 5.7 0 Calma 5 Sudeste 0 911.8 1 39
2019-03-28 07:00:00 3.7 4 Nordeste 6 Nordeste 0 911.3 0.6 38
2019-03-28 06:00:00 4.3 3 Nordeste 11 Nordeste 0 911 0.4 36
2019-03-28 05:00:00 4.9 8 Nordeste 11 Nordeste 0 910.8 0.2 35
2019-03-28 04:00:00 5.2 4 Nordeste 10 Nordeste 0 910.7 0.5 34
2019-03-28 03:00:00 5.8 8 Nordeste 19 Nordeste 0 910.6 1 33
2019-03-28 02:00:00 6.4 14 Nordeste 23 Este 0 910.6 1.5 31
2019-03-28 01:00:00 8.3 17 Nordeste 31 Nordeste 0 910.2 1.5 29
2019-03-28 00:00:00 9.9 17 Nordeste 27 Este 0 909.6 1.4 28
2019-03-27 23:00:00 9.6 8 Nordeste 32 Este 0 909.1 1.3 28
2019-03-27 22:00:00 10.3 9 Nordeste 22 Este 0 908.7 1.4 28
2019-03-27 21:00:00 11.9 12 Nordeste 22 Nordeste 0 908.2 1.1 26
2019-03-27 20:00:00 11.5 4 Oeste 8 Oeste 0 907.8 1.1 29
2019-03-27 19:00:00 14.3 4 Sudoeste 9 Sudoeste 0 907.3 -0.1 27
2019-03-27 18:00:00 15.7 4 Sur 21 Sudeste 0 907.1 -0.7 26
2019-03-27 17:00:00 15.4 9 Sudeste 21 Sudeste 0 906.7 -1.7 26
2019-03-27 16:00:00 15.1 9 Sudeste 19 Este 0 907.4 -1.6 26
2019-03-27 15:00:00 14.6 4 Sur 15 Sudeste 0 907.8 -1.3 28
2019-03-27 14:00:00 13.7 5 Sudeste 21 Sudeste 0 908.4 -1 31
2019-03-27 13:00:00 12.2 6 Sudeste 24 Sur 0 909 -0.2 32
2019-03-27 12:00:00 10.9 3 Sudeste 30 Sudeste 0 909.1 0.2 33
2019-03-27 11:00:00 8.9 4 Sudoeste 17 Sudoeste 0 909.4 0.7 35
2019-03-27 10:00:00 7.4 2 Sudoeste 10 Sudoeste 0 909.2 1 37
2019-03-27 09:00:00 5.4 4 Sudoeste 8 Sudoeste 0 908.9 1.1 36
2019-03-27 08:00:00 4.1 2 Este 8 Este 0 908.7 1.4 35
2019-03-27 07:00:00 2.2 5 Este 13 Este 0 908.2 0.8 35
2019-03-27 06:00:00 3.1 8 Este 12 Este 0 907.8 0.5 35
2019-03-27 05:00:00 3.4 8 Este 18 Este 0 907.3 0.2 33
2019-03-27 04:00:00 4.8 9 Este 23 Este 0 907.4 0 29
2019-03-27 03:00:00 5.2 12 Este 20 Este 0 907.3 0.5 27
2019-03-27 02:00:00 6.6 10 Este 15 Nordeste 0 907.1 0.6 26
2019-03-27 01:00:00 6.9 6 Este 19 Este 0 907.4 1.6 25
2019-03-27 00:00:00 9.1 14 Nordeste 25 Este 0 906.8 1.7 24